Time;durP1;ratioP1;P1;durP2;ratioP2;P2;SDS_P1;SDS_P2;PMS_P1;PMS_P2;Temp;Humidity;BMP_temperature;BMP_pressure;BME280_temperature;BME280_humidity;BME280_pressure;Samples;Min_cycle;Max_cycle;Signal;HPM_P1;HPM_P2
2023/01/01 04:00:48;;;;;;;0.63;0.60;;;14.40;54.60;;;;;;5748868;23;45954;-62
2023/01/01 04:03:18;;;;;;;0.77;0.70;;;14.40;54.70;;;;;;4874584;28;45240;-62
2023/01/01 04:05:44;;;;;;;0.90;0.70;;;14.40;54.60;;;;;;4904888;28;45606;-61
2023/01/01 04:08:09;;;;;;;0.60;0.60;;;14.40;54.60;;;;;;4859341;29;45188;-61
2023/01/01 04:10:37;;;;;;;1.40;0.80;;;14.40;54.60;;;;;;4865629;29;45493;-59
2023/01/01 04:13:04;;;;;;;0.80;0.80;;;14.40;54.60;;;;;;4881173;29;45545;-60
2023/01/01 04:15:30;;;;;;;1.02;0.90;;;14.40;54.60;;;;;;4881979;29;44973;-61
2023/01/01 04:17:56;;;;;;;0.90;0.75;;;14.40;54.60;;;;;;4875401;28;45480;-61
2023/01/01 04:20:21;;;;;;;1.48;0.90;;;14.40;54.60;;;;;;4898820;28;44969;-62
2023/01/01 04:22:47;;;;;;;1.02;0.82;;;14.40;54.60;;;;;;4896299;28;45364;-62
2023/01/01 04:25:13;;;;;;;0.93;0.70;;;14.50;54.70;;;;;;4898877;28;45255;-61
2023/01/01 04:27:38;;;;;;;0.80;0.80;;;14.40;54.60;;;;;;4893660;28;48473;-61
2023/01/01 04:30:05;;;;;;;0.77;0.70;;;14.40;54.60;;;;;;4894514;28;45337;-61
2023/01/01 04:32:30;;;;;;;0.70;0.70;;;14.40;54.60;;;;;;4889528;28;45414;-59
2023/01/01 04:34:56;;;;;;;0.75;0.60;;;14.40;54.60;;;;;;4896445;28;45253;-62
2023/01/01 04:37:22;;;;;;;0.82;0.80;;;14.40;54.60;;;;;;4894739;28;45984;-61
2023/01/01 04:39:47;;;;;;;0.82;0.60;;;14.40;54.60;;;;;;4896043;28;45351;-59
2023/01/01 04:42:13;;;;;;;0.75;0.75;;;14.40;54.60;;;;;;4889556;28;45038;-61
2023/01/01 04:44:38;;;;;;;0.65;0.50;;;14.40;54.60;;;;;;4890901;28;44810;-60
2023/01/01 04:47:04;;;;;;;0.73;0.60;;;14.50;54.70;;;;;;4888181;28;45079;-61
2023/01/01 04:49:30;;;;;;;0.77;0.70;;;14.40;54.60;;;;;;4899943;28;44553;-60
2023/01/01 04:51:55;;;;;;;0.80;0.80;;;14.40;54.60;;;;;;4893222;28;45085;-62
2023/01/01 04:54:21;;;;;;;1.20;0.90;;;14.40;54.70;;;;;;4894609;28;45324;-60
2023/01/01 04:56:46;;;;;;;0.82;0.68;;;14.40;54.60;;;;;;4893310;28;45982;-60
2023/01/01 04:59:12;;;;;;;0.80;0.68;;;14.40;54.60;;;;;;4890429;28;45503;-61
2023/01/01 05:01:37;;;;;;;0.82;0.70;;;14.40;54.60;;;;;;4890493;28;45457;-61
2023/01/01 05:04:03;;;;;;;0.73;0.60;;;14.40;54.60;;;;;;4895540;28;45429;-61
2023/01/01 05:06:28;;;;;;;0.82;0.80;;;14.40;54.60;;;;;;4893540;28;45268;-61
2023/01/01 05:08:54;;;;;;;1.08;0.90;;;14.40;54.60;;;;;;4891235;28;45233;-59
2023/01/01 05:11:22;;;;;;;0.95;0.80;;;14.50;54.60;;;;;;4892094;28;45210;-60
2023/01/01 05:13:48;;;;;;;0.65;0.65;;;14.50;55.20;;;;;;4896316;28;44941;-60
2023/01/01 05:16:15;;;;;;;1.00;0.90;;;14.40;54.60;;;;;;4889946;28;45167;-59
2023/01/01 05:18:41;;;;;;;0.70;0.70;;;14.40;54.60;;;;;;4889299;28;45220;-60
2023/01/01 05:21:15;;;;;;;1.38;1.15;;;14.40;54.60;;;;;;4894532;28;45314;-60
2023/01/01 05:23:41;;;;;;;0.90;0.80;;;14.50;54.70;;;;;;4896977;28;45213;-59
2023/01/01 05:26:11;;;;;;;0.70;0.70;;;14.40;54.70;;;;;;4892849;28;45841;-59
2023/01/01 05:28:37;;;;;;;1.17;0.85;;;14.50;54.70;;;;;;4895879;28;45186;-61
2023/01/01 05:31:07;;;;;;;0.85;0.80;;;14.50;54.70;;;;;;4893486;28;45304;-60
2023/01/01 05:33:33;;;;;;;0.63;0.63;;;14.50;54.70;;;;;;4895592;28;45285;-58
2023/01/01 05:35:58;;;;;;;0.80;0.73;;;14.40;54.60;;;;;;4893356;28;46380;-60
2023/01/01 05:38:24;;;;;;;1.10;0.90;;;14.40;54.60;;;;;;4884042;29;45320;-57
2023/01/01 05:40:49;;;;;;;0.82;0.68;;;14.40;54.60;;;;;;4896696;28;44654;-60
2023/01/01 05:43:16;;;;;;;0.75;0.70;;;14.40;54.70;;;;;;4899963;28;45387;-59
2023/01/01 05:45:43;;;;;;;0.75;0.75;;;14.50;54.70;;;;;;4881644;28;47098;-61
2023/01/01 05:48:08;;;;;;;1.15;0.98;;;14.40;54.60;;;;;;4899160;28;45165;-60
2023/01/01 05:50:34;;;;;;;0.98;0.93;;;14.40;54.60;;;;;;4893471;28;44953;-58
2023/01/01 05:52:59;;;;;;;0.60;0.60;;;14.40;54.60;;;;;;4895003;28;45588;-59
2023/01/01 05:55:25;;;;;;;0.98;0.77;;;14.40;54.60;;;;;;4880626;29;46143;-60
2023/01/01 05:57:51;;;;;;;0.80;0.73;;;14.40;54.60;;;;;;4897913;28;45725;-61
2023/01/01 06:00:16;;;;;;;0.77;0.75;;;14.40;54.70;;;;;;4883727;28;45521;-61
2023/01/01 06:02:42;;;;;;;0.85;0.73;;;14.40;54.60;;;;;;4897400;28;44716;-64
2023/01/01 06:05:08;;;;;;;0.90;0.75;;;14.40;54.60;;;;;;4899386;28;45273;-58
2023/01/01 06:07:33;;;;;;;0.65;0.60;;;14.40;54.60;;;;;;4892774;28;44608;-60
2023/01/01 06:09:59;;;;;;;1.05;0.90;;;14.40;54.60;;;;;;4891778;28;45527;-60
2023/01/01 06:12:24;;;;;;;0.65;0.63;;;14.40;54.60;;;;;;4896897;28;45263;-59
2023/01/01 06:14:50;;;;;;;0.80;0.75;;;14.40;54.60;;;;;;4895981;28;45353;-57
2023/01/01 06:17:15;;;;;;;0.70;0.70;;;14.40;54.60;;;;;;4897929;28;44940;-58
2023/01/01 06:19:41;;;;;;;0.98;0.88;;;14.40;54.60;;;;;;4900848;28;45467;-58
2023/01/01 06:22:06;;;;;;;0.85;0.80;;;14.40;54.60;;;;;;4894477;28;45678;-59
2023/01/01 06:24:32;;;;;;;0.50;0.50;;;14.40;54.60;;;;;;4894187;28;45586;-61
2023/01/01 06:26:57;;;;;;;0.63;0.63;;;14.40;54.60;;;;;;4896196;28;45200;-58
2023/01/01 06:29:23;;;;;;;0.50;0.50;;;14.50;54.70;;;;;;4900667;28;45370;-59
2023/01/01 06:31:48;;;;;;;1.17;0.88;;;14.40;54.60;;;;;;4875479;28;45331;-59
2023/01/01 06:34:14;;;;;;;0.90;0.70;;;14.40;54.60;;;;;;4896896;28;46483;-58
2023/01/01 06:36:39;;;;;;;1.00;0.80;;;14.40;54.60;;;;;;4897850;28;45270;-59
2023/01/01 06:39:05;;;;;;;1.00;0.80;;;14.50;54.70;;;;;;4898585;28;45484;-61
2023/01/01 06:41:31;;;;;;;1.00;0.77;;;14.50;54.70;;;;;;4896535;28;45510;-59
2023/01/01 06:43:57;;;;;;;1.30;1.08;;;14.40;54.60;;;;;;4894308;28;45014;-61
2023/01/01 06:46:28;;;;;;;1.00;0.88;;;14.50;54.60;;;;;;4893322;28;45070;-60
2023/01/01 06:48:55;;;;;;;0.98;0.80;;;14.40;54.60;;;;;;4899866;28;45422;-60
2023/01/01 06:51:25;;;;;;;0.90;0.73;;;14.40;54.60;;;;;;4899537;28;44626;-60
2023/01/01 06:53:51;;;;;;;0.73;0.70;;;14.40;54.70;;;;;;4895988;28;46279;-61
2023/01/01 06:56:17;;;;;;;0.75;0.65;;;14.50;54.70;;;;;;4896478;28;45069;-61
2023/01/01 06:58:42;;;;;;;0.90;0.80;;;14.50;54.70;;;;;;4884088;29;44901;-59
2023/01/01 07:01:09;;;;;;;1.00;0.60;;;14.40;54.60;;;;;;4896362;28;45357;-61
2023/01/01 07:03:36;;;;;;;1.00;0.82;;;14.40;54.60;;;;;;4879631;29;46036;-61
2023/01/01 07:06:01;;;;;;;1.23;0.80;;;14.50;54.70;;;;;;4895091;28;45618;-59
2023/01/01 07:08:27;;;;;;;1.27;0.80;;;14.50;54.70;;;;;;4897251;28;45195;-61
2023/01/01 07:10:56;;;;;;;0.85;0.70;;;14.50;54.70;;;;;;4890297;28;45165;-62
2023/01/01 07:13:22;;;;;;;0.70;0.60;;;14.40;54.60;;;;;;4883824;28;45964;-61
2023/01/01 07:15:47;;;;;;;0.70;0.70;;;14.40;54.60;;;;;;4893025;28;45551;-61
2023/01/01 07:18:13;;;;;;;1.60;1.00;;;14.50;54.70;;;;;;4893345;28;45749;-61
2023/01/01 07:20:38;;;;;;;1.15;0.90;;;14.40;55.30;;;;;;4897127;28;45439;-60
2023/01/01 07:23:04;;;;;;;0.95;0.77;;;14.50;54.70;;;;;;4896059;28;47065;-61
2023/01/01 07:25:29;;;;;;;0.93;0.75;;;14.50;54.70;;;;;;4893776;28;45285;-60
2023/01/01 07:27:55;;;;;;;1.40;0.90;;;14.50;54.70;;;;;;4892537;28;45388;-62
2023/01/01 07:30:20;;;;;;;1.10;0.90;;;14.50;54.70;;;;;;4895333;28;45481;-60
2023/01/01 07:32:46;;;;;;;0.70;0.70;;;14.50;54.70;;;;;;4891477;28;45126;-60
2023/01/01 07:35:11;;;;;;;0.55;0.55;;;14.40;54.60;;;;;;4890827;28;45112;-61
2023/01/01 07:37:37;;;;;;;1.05;0.80;;;14.40;54.70;;;;;;4891320;28;45222;-59
2023/01/01 07:40:03;;;;;;;0.65;0.52;;;14.40;54.70;;;;;;4894363;28;45142;-61
2023/01/01 07:42:28;;;;;;;1.05;0.70;;;14.40;54.60;;;;;;4893892;28;46214;-61
2023/01/01 07:44:54;;;;;;;1.00;0.90;;;14.50;54.80;;;;;;4875650;28;45304;-60
2023/01/01 07:47:24;;;;;;;0.90;0.90;;;14.40;54.60;;;;;;4890933;28;45426;-61
2023/01/01 07:49:50;;;;;;;0.90;0.80;;;14.50;54.70;;;;;;4897371;28;44948;-60
2023/01/01 07:52:15;;;;;;;0.95;0.85;;;14.50;54.70;;;;;;4894976;28;45898;-61
2023/01/01 07:54:41;;;;;;;0.63;0.57;;;14.50;55.30;;;;;;4895458;28;45022;-61
2023/01/01 07:57:06;;;;;;;0.80;0.70;;;14.50;54.70;;;;;;4891629;28;45521;-61
2023/01/01 07:59:32;;;;;;;1.33;0.95;;;14.50;54.70;;;;;;4897104;28;44927;-59
2023/01/01 08:01:57;;;;;;;0.82;0.82;;;14.40;54.60;;;;;;4890856;28;45500;-61
2023/01/01 08:04:23;;;;;;;0.73;0.73;;;14.50;54.70;;;;;;4890425;28;45287;-61
2023/01/01 08:06:48;;;;;;;1.27;1.02;;;14.50;54.70;;;;;;4890638;28;45010;-62
2023/01/01 08:09:14;;;;;;;0.77;0.68;;;14.50;54.70;;;;;;4886801;28;45624;-61
2023/01/01 08:11:39;;;;;;;0.70;0.70;;;14.50;54.70;;;;;;4897816;28;45374;-60
2023/01/01 08:14:05;;;;;;;0.73;0.65;;;14.40;54.60;;;;;;4896831;28;44710;-60
2023/01/01 08:16:31;;;;;;;1.10;0.63;;;14.40;54.70;;;;;;4887924;28;45132;-60
2023/01/01 08:18:56;;;;;;;0.73;0.70;;;14.50;54.80;;;;;;4897244;28;44951;-61
2023/01/01 08:21:22;;;;;;;0.85;0.80;;;14.50;54.70;;;;;;4898344;28;46340;-59
2023/01/01 08:23:47;;;;;;;0.98;0.80;;;14.50;54.70;;;;;;4890398;28;45442;-61
2023/01/01 08:26:15;;;;;;;0.90;0.60;;;14.50;54.70;;;;;;4891488;28;45478;-60
2023/01/01 08:28:40;;;;;;;0.85;0.80;;;14.40;54.70;;;;;;4888625;28;45227;-59
2023/01/01 08:31:06;;;;;;;0.98;0.77;;;14.50;54.70;;;;;;4892451;28;46369;-61
2023/01/01 08:33:31;;;;;;;0.70;0.70;;;14.40;54.70;;;;;;4892244;28;44964;-60
2023/01/01 08:35:57;;;;;;;1.00;0.90;;;14.40;54.70;;;;;;4896106;28;45315;-59
2023/01/01 08:38:22;;;;;;;1.00;0.90;;;14.50;54.70;;;;;;4878446;29;45266;-59
2023/01/01 08:40:48;;;;;;;0.70;0.70;;;14.50;54.80;;;;;;4889004;28;45185;-60
2023/01/01 08:43:14;;;;;;;0.80;0.70;;;14.50;54.70;;;;;;4893257;28;45257;-59
2023/01/01 08:45:39;;;;;;;0.77;0.77;;;14.50;54.70;;;;;;4892350;28;45262;-60
2023/01/01 08:48:05;;;;;;;0.82;0.80;;;14.50;54.70;;;;;;4890745;28;45330;-59
2023/01/01 08:50:30;;;;;;;1.08;0.80;;;14.50;54.60;;;;;;4900498;28;46116;-58
2023/01/01 08:52:59;;;;;;;0.95;0.75;;;14.50;54.60;;;;;;4892815;28;44741;-62
2023/01/01 08:55:24;;;;;;;0.70;0.70;;;14.50;54.60;;;;;;4894388;28;45245;-60
2023/01/01 08:57:50;;;;;;;0.80;0.80;;;14.50;54.60;;;;;;4897398;28;45400;-59
2023/01/01 09:00:16;;;;;;;1.00;0.88;;;14.50;54.60;;;;;;4895021;28;45409;-58
2023/01/01 09:02:42;;;;;;;0.98;0.68;;;14.60;54.60;;;;;;4860328;29;45192;-57
2023/01/01 09:05:08;;;;;;;0.90;0.80;;;14.60;54.60;;;;;;4894648;28;45457;-56
2023/01/01 09:07:33;;;;;;;0.93;0.75;;;14.50;54.60;;;;;;4891856;28;45764;-61
2023/01/01 09:09:59;;;;;;;0.98;0.88;;;14.60;54.50;;;;;;4897995;28;44922;-61
2023/01/01 09:12:24;;;;;;;0.70;0.70;;;14.60;54.50;;;;;;4900861;28;45312;-61
2023/01/01 09:14:50;;;;;;;0.80;0.80;;;14.60;54.60;;;;;;4900300;28;45342;-61
2023/01/01 09:17:15;;;;;;;0.75;0.73;;;14.60;54.50;;;;;;4896194;28;45538;-60
2023/01/01 09:19:41;;;;;;;0.70;0.70;;;14.60;54.50;;;;;;4903721;28;45567;-60
2023/01/01 09:22:10;;;;;;;0.70;0.60;;;14.60;54.60;;;;;;4890557;28;44758;-61
2023/01/01 09:24:36;;;;;;;0.80;0.63;;;14.60;54.60;;;;;;4889421;28;45607;-60
2023/01/01 09:27:01;;;;;;;0.95;0.80;;;14.50;54.60;;;;;;4893953;28;44826;-61
2023/01/01 09:29:27;;;;;;;0.70;0.68;;;14.50;54.60;;;;;;4892686;28;46118;-60
2023/01/01 09:31:53;;;;;;;0.90;0.70;;;14.60;54.60;;;;;;4893635;28;45499;-60
2023/01/01 09:34:18;;;;;;;0.55;0.50;;;14.60;54.50;;;;;;4895983;28;45597;-59
2023/01/01 09:36:44;;;;;;;0.90;0.75;;;14.60;54.50;;;;;;4893339;28;44675;-61
2023/01/01 09:39:11;;;;;;;0.70;0.68;;;14.60;54.50;;;;;;4879702;28;46401;-67
2023/01/01 09:42:05;;;;;;;0.95;0.80;;;14.60;54.40;;;;;;4881237;28;45037;-59
2023/01/01 09:44:49;;;;;;;;;;;14.70;54.40;;;;;;4896983;28;45449;-59
2023/01/01 09:47:43;;;;;;;0.63;0.63;;;14.60;54.40;;;;;;4896234;28;45490;-60
2023/01/01 09:50:17;;;;;;;0.60;0.60;;;14.60;54.40;;;;;;4892849;28;46198;-59
2023/01/01 09:52:57;;;;;;;0.70;0.68;;;14.60;54.40;;;;;;4881623;29;45269;-60
2023/01/01 09:55:27;;;;;;;0.45;0.45;;;14.60;54.40;;;;;;4890271;28;45703;-61
2023/01/01 09:57:54;;;;;;;0.45;0.45;;;14.60;54.40;;;;;;4881158;29;45321;-60
2023/01/01 10:00:19;;;;;;;0.77;0.73;;;14.70;54.40;;;;;;4889924;28;46146;-61
2023/01/01 10:02:53;;;;;;;0.77;0.70;;;14.60;54.40;;;;;;4893444;28;45261;-60
2023/01/01 10:06:01;;;;;;;1.23;0.90;;;14.60;54.40;;;;;;4878622;28;45631;-60
2023/01/01 10:08:41;;;;;;;0.88;0.68;;;14.70;54.50;;;;;;4892093;28;45151;-61
2023/01/01 10:11:12;;;;;;;0.93;0.90;;;14.70;54.50;;;;;;4892806;28;45249;-60
2023/01/01 10:13:40;;;;;;;0.98;0.85;;;14.70;54.50;;;;;;4893531;28;45363;-61
2023/01/01 10:16:30;;;;;;;0.80;0.65;;;14.70;54.40;;;;;;4891915;28;45093;-61
2023/01/01 10:18:57;;;;;;;0.52;0.52;;;14.70;54.40;;;;;;4893677;28;45618;-61
2023/01/01 10:21:30;;;;;;;0.77;0.70;;;14.70;54.30;;;;;;4880316;28;45301;-59
2023/01/01 10:24:18;;;;;;;;;;;14.70;54.30;;;;;;4895365;28;45426;-65
2023/01/01 10:26:43;;;;;;;0.90;0.70;;;14.70;54.30;;;;;;4892557;28;45440;-59
2023/01/01 10:29:13;;;;;;;0.73;0.50;;;14.70;54.40;;;;;;4880352;28;44927;-62
2023/01/01 10:31:41;;;;;;;0.80;0.68;;;14.70;54.40;;;;;;4880709;29;46382;-60
2023/01/01 10:34:27;;;;;;;0.88;0.70;;;14.70;54.40;;;;;;4889621;28;45420;-60
2023/01/01 10:36:56;;;;;;;0.75;0.75;;;14.70;54.30;;;;;;4891726;28;45339;-61
2023/01/01 10:39:22;;;;;;;0.60;0.50;;;14.70;54.40;;;;;;4892527;28;46106;-60
2023/01/01 10:41:48;;;;;;;0.63;0.63;;;14.70;54.40;;;;;;4892902;28;45809;-59
2023/01/01 10:44:15;;;;;;;1.00;0.75;;;14.70;54.40;;;;;;4890975;28;44643;-60
2023/01/01 10:46:46;;;;;;;0.85;0.82;;;14.70;54.40;;;;;;4877675;29;46020;-59
2023/01/01 10:49:12;;;;;;;0.93;0.75;;;14.70;54.40;;;;;;4864227;28;45390;-61
2023/01/01 10:51:48;;;;;;;0.90;0.70;;;14.80;54.40;;;;;;4892678;28;46184;-60
2023/01/01 10:54:35;;;;;;;1.17;1.05;;;14.70;54.30;;;;;;4880856;28;45407;-61
2023/01/01 10:57:36;;;;;;;0.60;0.50;;;14.70;54.40;;;;;;4888329;28;45712;-62
2023/01/01 11:00:20;;;;;;;0.73;0.65;;;14.70;54.50;;;;;;4888821;28;45206;-58
2023/01/01 11:02:45;;;;;;;0.60;0.60;;;14.70;54.40;;;;;;4892017;28;46031;-60
2023/01/01 11:05:19;;;;;;;0.90;0.82;;;14.70;54.40;;;;;;4877810;28;44741;-60
2023/01/01 11:07:45;;;;;;;0.70;0.60;;;14.70;54.50;;;;;;4892009;28;45320;-62
2023/01/01 11:10:19;;;;;;;0.93;0.80;;;14.70;54.50;;;;;;4890363;28;44830;-61
2023/01/01 11:12:45;;;;;;;0.90;0.80;;;14.70;54.50;;;;;;4892004;28;46007;-61
2023/01/01 11:15:21;;;;;;;0.77;0.77;;;14.70;54.40;;;;;;4879086;28;45238;-59
2023/01/01 11:17:46;;;;;;;0.80;0.60;;;14.70;54.40;;;;;;4888953;28;45453;-61
2023/01/01 11:20:17;;;;;;;0.60;0.60;;;14.70;54.40;;;;;;4878955;28;45454;-60
2023/01/01 11:22:48;;;;;;;0.70;0.70;;;14.80;54.30;;;;;;4890117;28;45668;-60
2023/01/01 11:25:27;;;;;;;0.70;0.55;;;14.80;54.30;;;;;;4890624;28;45298;-61
2023/01/01 11:28:15;;;;;;;0.75;0.70;;;14.80;54.30;;;;;;4896114;28;44843;-61
2023/01/01 11:30:40;;;;;;;1.25;0.95;;;14.70;54.40;;;;;;4890471;28;45535;-59
2023/01/01 11:33:06;;;;;;;0.70;0.60;;;14.70;54.40;;;;;;4877490;28;45857;-59
2023/01/01 11:35:36;;;;;;;0.80;0.70;;;14.70;54.30;;;;;;4887300;28;45426;-61
2023/01/01 11:38:02;;;;;;;1.15;0.60;;;14.80;54.40;;;;;;4862251;29;45568;-61
2023/01/01 11:40:37;;;;;;;0.77;0.57;;;14.70;54.40;;;;;;4892248;28;45872;-60
2023/01/01 11:43:03;;;;;;;0.70;0.70;;;14.70;54.50;;;;;;4892681;29;45269;-61
2023/01/01 11:45:41;;;;;;;0.88;0.77;;;14.70;54.50;;;;;;4876864;29;45283;-62
2023/01/01 11:48:15;;;;;;;0.93;0.73;;;14.80;54.50;;;;;;4876371;28;44905;-60
2023/01/01 11:50:51;;;;;;;0.75;0.60;;;14.80;54.40;;;;;;4891765;28;45549;-60
2023/01/01 11:53:23;;;;;;;0.60;0.60;;;14.80;54.40;;;;;;4877992;28;45014;-60
2023/01/01 11:55:54;;;;;;;0.90;0.60;;;14.80;54.50;;;;;;4890164;28;45658;-60
2023/01/01 11:58:49;;;;;;;0.70;0.70;;;14.80;54.40;;;;;;4888574;28;45582;-60
2023/01/01 12:01:35;;;;;;;0.60;0.52;;;14.80;54.90;;;;;;4887524;28;45563;-60
2023/01/01 12:04:09;;;;;;;0.90;0.73;;;14.80;54.50;;;;;;4876336;29;48224;-61
2023/01/01 12:06:43;;;;;;;0.60;0.60;;;14.80;54.40;;;;;;4873771;28;45374;-60
2023/01/01 12:09:21;;;;;;;0.80;0.77;;;14.80;54.40;;;;;;4888268;28;46222;-60
2023/01/01 12:12:04;;;;;;;0.77;0.70;;;14.80;54.40;;;;;;4890633;28;45736;-61
2023/01/01 12:14:50;;;;;;;0.73;0.63;;;14.80;54.40;;;;;;4888782;28;46742;-60
2023/01/01 12:17:25;;;;;;;0.57;0.57;;;14.80;54.40;;;;;;4891845;28;45198;-61
2023/01/01 12:20:10;;;;;;;0.70;0.70;;;14.80;54.40;;;;;;4874806;29;45479;-61
2023/01/01 12:22:36;;;;;;;1.00;0.90;;;14.80;54.50;;;;;;4890885;28;44853;-59
2023/01/01 12:25:02;;;;;;;0.93;0.70;;;14.80;54.50;;;;;;4890035;28;46175;-61
2023/01/01 12:27:40;;;;;;;0.90;0.73;;;14.80;54.50;;;;;;4879826;28;45146;-61
2023/01/01 12:30:10;;;;;;;0.57;0.57;;;14.80;54.50;;;;;;4874658;29;45505;-59
2023/01/01 12:32:48;;;;;;;0.93;0.65;;;14.80;54.50;;;;;;4888935;28;46217;-62
2023/01/01 12:35:20;;;;;;;0.70;0.60;;;14.80;54.40;;;;;;4856152;28;45332;-61
2023/01/01 12:37:53;;;;;;;0.70;0.70;;;14.80;54.40;;;;;;4887082;28;45299;-61
2023/01/01 12:40:38;;;;;;;0.80;0.70;;;14.80;54.40;;;;;;4887322;28;45307;-61
2023/01/01 12:43:17;;;;;;;0.85;0.75;;;14.80;54.40;;;;;;4890583;28;45781;-61
2023/01/01 12:46:12;;;;;;;0.47;0.47;;;14.80;54.40;;;;;;4893682;28;46229;-61
2023/01/01 12:48:51;;;;;;;0.80;0.80;;;14.90;54.40;;;;;;4881311;28;44926;-61
2023/01/01 12:51:23;;;;;;;0.82;0.70;;;14.80;54.40;;;;;;4894180;28;44671;-58
2023/01/01 12:53:58;;;;;;;0.73;0.63;;;14.80;54.40;;;;;;4892360;28;45492;-60
2023/01/01 12:56:34;;;;;;;1.10;0.80;;;14.90;54.40;;;;;;4881286;28;46217;-60
2023/01/01 12:59:05;;;;;;;0.60;0.60;;;14.90;54.50;;;;;;4891626;28;45627;-61
2023/01/01 13:01:31;;;;;;;0.68;0.68;;;14.80;54.50;;;;;;4890672;28;45090;-62
2023/01/01 13:04:02;;;;;;;0.90;0.73;;;14.80;54.50;;;;;;4894006;28;45470;-62
2023/01/01 13:06:39;;;;;;;0.80;0.70;;;14.80;54.50;;;;;;4874377;28;46196;-61
2023/01/01 13:09:20;;;;;;;0.60;0.60;;;14.90;54.60;;;;;;4889336;28;45278;-61
2023/01/01 13:11:51;;;;;;;1.00;0.80;;;14.80;54.50;;;;;;4880203;29;44790;-60
2023/01/01 13:14:17;;;;;;;0.57;0.55;;;14.80;54.40;;;;;;4879311;28;45994;-61
2023/01/01 13:16:50;;;;;;;0.70;0.60;;;14.90;54.60;;;;;;4878715;29;46231;-59
2023/01/01 13:19:30;;;;;;;0.55;0.55;;;14.90;54.50;;;;;;4891641;28;45283;-61
2023/01/01 13:21:56;;;;;;;1.02;0.80;;;14.90;54.40;;;;;;4864047;28;44880;-60
2023/01/01 13:24:23;;;;;;;0.65;0.65;;;14.90;54.40;;;;;;4886954;28;44986;-63
2023/01/01 13:26:49;;;;;;;1.00;0.80;;;14.90;55.00;;;;;;4892159;28;47546;-61
2023/01/01 13:29:14;;;;;;;0.60;0.60;;;14.90;54.50;;;;;;4875914;28;45342;-60
2023/01/01 13:31:40;;;;;;;0.60;0.60;;;14.90;54.40;;;;;;4890986;28;45354;-61
2023/01/01 13:34:28;;;;;;;0.88;0.82;;;14.90;54.50;;;;;;4890876;28;45214;-60
2023/01/01 13:37:17;;;;;;;0.82;0.77;;;14.90;54.50;;;;;;4893010;28;46029;-59
2023/01/01 13:40:12;;;;;;;0.45;0.45;;;14.90;54.50;;;;;;4890773;28;45193;-61
2023/01/01 13:42:42;;;;;;;0.60;0.60;;;14.90;54.50;;;;;;4889830;28;44662;-61
2023/01/01 13:45:13;;;;;;;0.75;0.68;;;14.90;54.50;;;;;;4889520;28;44595;-59
2023/01/01 13:47:50;;;;;;;0.82;0.80;;;14.90;54.40;;;;;;4876621;29;46214;-61
2023/01/01 13:50:24;;;;;;;1.00;0.77;;;14.90;54.50;;;;;;4872691;28;45240;-61
2023/01/01 13:53:48;;;;;;;0.60;0.60;;;14.90;54.50;;;;;;4874449;29;45274;-60
2023/01/01 13:56:34;;;;;;;0.90;0.73;;;14.90;54.50;;;;;;4842590;29;45724;-61
2023/01/01 13:59:30;;;;;;;0.60;0.60;;;14.90;54.50;;;;;;4853231;29;45446;-60
2023/01/01 14:02:25;;;;;;;0.85;0.65;;;14.90;54.50;;;;;;4882858;28;45894;-61
2023/01/01 14:05:04;;;;;;;1.08;0.73;;;14.90;54.50;;;;;;4895095;28;45399;-59
2023/01/01 14:07:49;;;;;;;0.65;0.65;;;14.90;54.50;;;;;;4878340;28;45465;-61
2023/01/01 14:10:18;;;;;;;0.80;0.52;;;14.90;54.50;;;;;;4891426;28;45662;-60
2023/01/01 14:12:46;;;;;;;0.80;0.65;;;14.90;54.50;;;;;;4893200;28;45197;-61
2023/01/01 14:15:38;;;;;;;0.80;0.80;;;14.90;54.50;;;;;;4892563;28;45598;-61
2023/01/01 14:18:14;;;;;;;0.75;0.60;;;14.90;54.50;;;;;;4894085;28;45397;-62
2023/01/01 14:20:42;;;;;;;0.60;0.60;;;14.90;54.50;;;;;;4877991;29;46178;-60
2023/01/01 14:23:11;;;;;;;0.70;0.70;;;14.90;54.50;;;;;;4888219;28;45253;-61
2023/01/01 14:25:39;;;;;;;0.50;0.50;;;14.90;54.50;;;;;;4886839;28;45008;-59
2023/01/01 14:28:06;;;;;;;0.98;0.52;;;14.90;54.60;;;;;;4873180;28;45237;-60
2023/01/01 14:30:33;;;;;;;1.20;0.70;;;14.90;54.60;;;;;;4877761;28;45764;-63
2023/01/01 14:33:00;;;;;;;0.80;0.60;;;14.90;54.50;;;;;;4874986;29;44704;-61
2023/01/01 14:35:27;;;;;;;0.63;0.60;;;14.90;54.60;;;;;;4889754;28;45397;-60
2023/01/01 14:37:54;;;;;;;0.63;0.63;;;14.90;54.50;;;;;;4876076;29;45446;-60
2023/01/01 14:40:27;;;;;;;0.63;0.60;;;14.90;54.50;;;;;;4876391;28;45548;-61
2023/01/01 14:43:00;;;;;;;0.80;0.80;;;14.90;54.50;;;;;;4889317;28;45556;-61
2023/01/01 14:45:27;;;;;;;0.68;0.55;;;14.90;54.60;;;;;;4876966;28;45586;-59
2023/01/01 14:47:53;;;;;;;0.98;0.60;;;14.90;54.60;;;;;;4875899;29;45320;-63
2023/01/01 14:50:29;;;;;;;1.10;0.80;;;15.00;54.50;;;;;;4888342;28;46048;-61
2023/01/01 14:53:06;;;;;;;0.85;0.75;;;15.00;54.50;;;;;;4893486;28;45250;-61
2023/01/01 14:55:38;;;;;;;0.90;0.60;;;15.00;54.60;;;;;;4882799;28;45603;-60
2023/01/01 14:58:04;;;;;;;1.33;0.60;;;14.90;54.60;;;;;;4879633;29;45389;-61
2023/01/01 15:00:32;;;;;;;0.63;0.63;;;14.90;54.60;;;;;;4887770;28;46613;-61
2023/01/01 15:03:25;;;;;;;0.73;0.70;;;14.90;54.60;;;;;;4889090;28;45225;-61
2023/01/01 15:05:59;;;;;;;0.70;0.60;;;14.90;54.60;;;;;;4900311;28;45618;-60
2023/01/01 15:08:25;;;;;;;0.88;0.88;;;14.90;54.60;;;;;;4888976;28;45597;-60
2023/01/01 15:10:52;;;;;;;0.80;0.70;;;14.90;54.60;;;;;;4889093;28;45245;-63
2023/01/01 15:13:23;;;;;;;0.77;0.60;;;14.90;54.60;;;;;;4887921;28;45277;-61
2023/01/01 15:15:50;;;;;;;0.63;0.52;;;14.90;54.60;;;;;;4889805;28;45519;-61
2023/01/01 15:18:44;;;;;;;1.40;0.70;;;14.90;54.60;;;;;;4877388;29;46351;-61
2023/01/01 15:21:17;;;;;;;;;;;15.00;54.70;;;;;;4889122;28;45498;-59
2023/01/01 15:23:53;;;;;;;0.70;0.70;;;14.90;54.80;;;;;;4886911;28;45325;-62
2023/01/01 15:26:28;;;;;;;0.80;0.60;;;14.90;54.70;;;;;;4877584;28;46312;-61
2023/01/01 15:28:54;;;;;;;0.77;0.63;;;14.90;54.70;;;;;;4870773;29;44696;-62
2023/01/01 15:31:20;;;;;;;0.50;0.50;;;14.90;54.60;;;;;;4875795;28;45896;-61
2023/01/01 15:33:47;;;;;;;1.00;0.90;;;14.90;54.70;;;;;;4871717;29;45713;-60
2023/01/01 15:36:14;;;;;;;0.77;0.70;;;14.90;54.60;;;;;;4891559;28;45635;-62
2023/01/01 15:38:40;;;;;;;0.82;0.77;;;14.90;54.60;;;;;;4875391;28;45832;-61
2023/01/01 15:41:34;;;;;;;0.77;0.60;;;14.90;54.70;;;;;;4873616;29;45266;-62
2023/01/01 15:44:18;;;;;;;;;;;14.90;54.70;;;;;;4891114;28;45261;-59
2023/01/01 15:46:46;;;;;;;;;;;14.90;54.70;;;;;;4890203;28;45528;-61
2023/01/01 15:49:28;;;;;;;0.57;0.50;;;14.90;54.90;;;;;;4876665;29;45108;-59
2023/01/01 15:51:55;;;;;;;0.88;0.73;;;14.90;54.70;;;;;;4886077;28;46110;-62
2023/01/01 15:54:21;;;;;;;0.95;0.70;;;14.90;54.70;;;;;;4886700;28;45483;-60
2023/01/01 15:56:46;;;;;;;0.60;0.52;;;14.90;54.60;;;;;;4887769;28;45258;-61
2023/01/01 15:59:24;;;;;;;0.70;0.70;;;14.90;54.70;;;;;;4873554;29;45352;-61
2023/01/01 16:01:49;;;;;;;0.85;0.70;;;15.00;54.70;;;;;;4889142;28;45755;-61
2023/01/01 16:04:20;;;;;;;0.70;0.60;;;14.90;54.70;;;;;;4876087;29;45233;-60
2023/01/01 16:06:49;;;;;;;0.80;0.80;;;14.90;54.60;;;;;;4876599;28;44763;-60
2023/01/01 16:09:15;;;;;;;0.93;0.80;;;14.90;54.60;;;;;;4877225;28;45508;-61
2023/01/01 16:11:41;;;;;;;0.70;0.70;;;14.90;54.60;;;;;;4889524;28;45538;-61
2023/01/01 16:14:06;;;;;;;0.68;0.63;;;14.90;54.70;;;;;;4890809;28;45150;-61
2023/01/01 16:16:32;;;;;;;0.75;0.60;;;14.90;54.70;;;;;;4888524;28;45179;-59
2023/01/01 16:18:58;;;;;;;0.60;0.60;;;14.90;54.70;;;;;;4875469;29;45643;-60
2023/01/01 16:21:28;;;;;;;0.90;0.77;;;14.90;54.70;;;;;;4885482;28;46132;-60
2023/01/01 16:23:53;;;;;;;0.70;0.65;;;14.90;54.70;;;;;;4887820;28;45220;-62
2023/01/01 16:26:19;;;;;;;0.95;0.68;;;14.90;54.70;;;;;;4889507;28;46379;-60
2023/01/01 16:28:45;;;;;;;0.88;0.70;;;14.90;54.70;;;;;;4885742;28;45198;-62
2023/01/01 16:31:18;;;;;;;0.75;0.75;;;14.90;54.70;;;;;;4888772;28;46036;-61
2023/01/01 16:33:45;;;;;;;0.75;0.70;;;14.90;54.70;;;;;;4886801;28;45672;-61
2023/01/01 16:36:11;;;;;;;0.85;0.85;;;14.90;54.80;;;;;;4878370;28;44747;-60
2023/01/01 16:38:37;;;;;;;1.00;0.75;;;14.90;54.80;;;;;;4888786;28;45188;-61
2023/01/01 16:41:03;;;;;;;0.65;0.60;;;14.90;54.70;;;;;;4885442;28;47811;-59
2023/01/01 16:43:28;;;;;;;0.65;0.60;;;14.90;54.80;;;;;;4888516;28;45576;-60
2023/01/01 16:45:54;;;;;;;0.88;0.70;;;14.90;54.80;;;;;;4890540;28;45248;-61
2023/01/01 16:48:19;;;;;;;0.52;0.52;;;14.90;54.70;;;;;;4888929;28;45291;-61
2023/01/01 16:50:49;;;;;;;1.05;0.80;;;14.90;54.70;;;;;;4887109;28;46360;-60
2023/01/01 16:53:14;;;;;;;0.75;0.70;;;14.90;54.70;;;;;;4883956;28;45568;-62
2023/01/01 16:55:40;;;;;;;0.82;0.70;;;14.90;54.70;;;;;;4869077;28;46159;-61
2023/01/01 16:58:05;;;;;;;0.60;0.60;;;14.90;54.70;;;;;;4886661;28;45274;-62
2023/01/01 17:00:31;;;;;;;0.47;0.47;;;14.90;54.70;;;;;;4886615;28;46838;-61
2023/01/01 17:02:56;;;;;;;0.75;0.70;;;14.90;54.70;;;;;;4887275;28;45249;-62